Furniss, New York
Current Conditions -  °F | °C
As of 6:54 PM on Friday 21 Nov 2014 (Local Time) from KFZY Reporting Station
Overcast Overcast  
Wind Chill: 17°   Ceiling: 5500
Heat Index: 27°   Visibility: 10mi
Dew Point: 14°   Wind: 12mph
Humidity: 58%   Direction: 230°SW
Pressure: 30.41"   Gusts: NA
Location:  43.4571°N, 76.4163°W
Report Text: KFZY 212354Z AUTO 23010KT 10SM OVC055 M03/M10 A3041 RMK AO2 SLP306 60000 T10281100 11017 21033 51002
Loading
Personal Weather Stations






























Interactive Weather Map New forecast layout! Learn more

10-Day Weather Forecast

Advertisements
Track Severe Weather on mobile